sensor_id;sensor_type;location;lat;lon;timestamp;temperature;humidity
55642;DHT22;41509;53.108;6.100;2022-10-16T00:00:43;12.80;99.90
55642;DHT22;41509;53.108;6.100;2022-10-16T00:03:10;12.80;99.90
55642;DHT22;41509;53.108;6.100;2022-10-16T00:05:42;12.80;99.90
55642;DHT22;41509;53.108;6.100;2022-10-16T00:08:49;12.80;99.90
55642;DHT22;41509;53.108;6.100;2022-10-16T00:11:18;12.80;99.90
55642;DHT22;41509;53.108;6.100;2022-10-16T00:13:45;12.70;99.90
55642;DHT22;41509;53.108;6.100;2022-10-16T00:16:12;12.70;99.90
55642;DHT22;41509;53.108;6.100;2022-10-16T00:18:39;12.70;99.90
55642;DHT22;41509;53.108;6.100;2022-10-16T00:21:15;12.80;99.90
55642;DHT22;41509;53.108;6.100;2022-10-16T00:23:42;12.70;99.90
55642;DHT22;41509;53.108;6.100;2022-10-16T00:26:17;12.70;99.90
55642;DHT22;41509;53.108;6.100;2022-10-16T00:29:13;12.70;99.90
55642;DHT22;41509;53.108;6.100;2022-10-16T00:31:40;12.70;99.90
55642;DHT22;41509;53.108;6.100;2022-10-16T00:34:34;12.70;99.90
55642;DHT22;41509;53.108;6.100;2022-10-16T00:37:01;12.80;99.90
55642;DHT22;41509;53.108;6.100;2022-10-16T00:39:26;12.70;99.90
55642;DHT22;41509;53.108;6.100;2022-10-16T00:41:52;12.70;99.90
55642;DHT22;41509;53.108;6.100;2022-10-16T00:44:50;12.70;99.90
55642;DHT22;41509;53.108;6.100;2022-10-16T00:47:40;12.70;99.90
55642;DHT22;41509;53.108;6.100;2022-10-16T00:50:29;12.70;99.90
55642;DHT22;41509;53.108;6.100;2022-10-16T00:52:56;12.80;99.90
55642;DHT22;41509;53.108;6.100;2022-10-16T00:55:23;12.80;99.90
55642;DHT22;41509;53.108;6.100;2022-10-16T00:57:49;12.80;99.90
55642;DHT22;41509;53.108;6.100;2022-10-16T01:00:19;12.80;99.90
55642;DHT22;41509;53.108;6.100;2022-10-16T01:02:53;12.80;99.90
55642;DHT22;41509;53.108;6.100;2022-10-16T01:05:21;12.80;99.90
55642;DHT22;41509;53.108;6.100;2022-10-16T01:07:52;12.80;99.90
55642;DHT22;41509;53.108;6.100;2022-10-16T01:11:01;12.80;99.90
55642;DHT22;41509;53.108;6.100;2022-10-16T01:13:37;12.80;99.90
55642;DHT22;41509;53.108;6.100;2022-10-16T01:16:15;12.80;99.90
55642;DHT22;41509;53.108;6.100;2022-10-16T01:18:57;12.80;99.90
55642;DHT22;41509;53.108;6.100;2022-10-16T01:21:31;12.80;99.90
55642;DHT22;41509;53.108;6.100;2022-10-16T01:29:51;12.90;99.90
55642;DHT22;41509;53.108;6.100;2022-10-16T01:32:23;12.90;99.90
55642;DHT22;41509;53.108;6.100;2022-10-16T01:34:54;12.90;99.90
55642;DHT22;41509;53.108;6.100;2022-10-16T01:37:32;12.90;99.90
55642;DHT22;41509;53.108;6.100;2022-10-16T01:40:00;12.90;99.90
55642;DHT22;41509;53.108;6.100;2022-10-16T01:42:34;12.90;99.90
55642;DHT22;41509;53.108;6.100;2022-10-16T01:45:01;12.90;99.90
55642;DHT22;41509;53.108;6.100;2022-10-16T01:47:30;12.90;99.90
55642;DHT22;41509;53.108;6.100;2022-10-16T01:49:58;12.90;99.90
55642;DHT22;41509;53.108;6.100;2022-10-16T01:52:26;13.00;99.90
55642;DHT22;41509;53.108;6.100;2022-10-16T01:54:54;13.00;99.90
55642;DHT22;41509;53.108;6.100;2022-10-16T01:57:21;13.00;99.90
55642;DHT22;41509;53.108;6.100;2022-10-16T01:59:52;13.00;99.90
55642;DHT22;41509;53.108;6.100;2022-10-16T02:02:20;13.00;99.90
55642;DHT22;41509;53.108;6.100;2022-10-16T02:04:54;13.00;99.90
55642;DHT22;41509;53.108;6.100;2022-10-16T02:07:23;13.10;99.90
55642;DHT22;41509;53.108;6.100;2022-10-16T02:09:49;13.00;99.90
55642;DHT22;41509;53.108;6.100;2022-10-16T02:12:28;13.00;99.90
55642;DHT22;41509;53.108;6.100;2022-10-16T02:14:55;13.00;99.90
55642;DHT22;41509;53.108;6.100;2022-10-16T02:17:21;13.00;99.90
55642;DHT22;41509;53.108;6.100;2022-10-16T02:19:48;13.00;99.90
55642;DHT22;41509;53.108;6.100;2022-10-16T02:24:59;13.00;99.90
55642;DHT22;41509;53.108;6.100;2022-10-16T02:27:53;13.00;99.90
55642;DHT22;41509;53.108;6.100;2022-10-16T02:33:07;13.00;99.90
55642;DHT22;41509;53.108;6.100;2022-10-16T02:35:34;13.00;99.90
55642;DHT22;41509;53.108;6.100;2022-10-16T02:38:01;13.00;99.90
55642;DHT22;41509;53.108;6.100;2022-10-16T02:40:27;13.10;99.90
55642;DHT22;41509;53.108;6.100;2022-10-16T02:42:54;13.00;99.90
55642;DHT22;41509;53.108;6.100;2022-10-16T02:45:21;12.90;99.90
55642;DHT22;41509;53.108;6.100;2022-10-16T02:47:47;12.90;99.90
55642;DHT22;41509;53.108;6.100;2022-10-16T02:50:13;12.90;99.90
55642;DHT22;41509;53.108;6.100;2022-10-16T02:52:38;12.90;99.90
55642;DHT22;41509;53.108;6.100;2022-10-16T02:55:04;12.90;99.90
55642;DHT22;41509;53.108;6.100;2022-10-16T02:57:30;12.90;99.90
55642;DHT22;41509;53.108;6.100;2022-10-16T02:59:57;12.90;99.90
55642;DHT22;41509;53.108;6.100;2022-10-16T03:02:23;12.80;99.90
55642;DHT22;41509;53.108;6.100;2022-10-16T03:04:48;12.80;99.90
55642;DHT22;41509;53.108;6.100;2022-10-16T03:07:14;12.70;99.90
55642;DHT22;41509;53.108;6.100;2022-10-16T03:09:40;12.80;99.90
55642;DHT22;41509;53.108;6.100;2022-10-16T03:12:06;12.90;99.90
55642;DHT22;41509;53.108;6.100;2022-10-16T03:14:32;12.80;99.90
55642;DHT22;41509;53.108;6.100;2022-10-16T03:16:57;12.70;99.90
55642;DHT22;41509;53.108;6.100;2022-10-16T03:19:23;12.60;99.90
55642;DHT22;41509;53.108;6.100;2022-10-16T03:21:49;12.70;99.90
55642;DHT22;41509;53.108;6.100;2022-10-16T03:24:14;12.70;99.90
55642;DHT22;41509;53.108;6.100;2022-10-16T03:26:40;12.70;99.90
55642;DHT22;41509;53.108;6.100;2022-10-16T03:29:06;12.60;99.90
55642;DHT22;41509;53.108;6.100;2022-10-16T03:31:32;12.70;99.90
55642;DHT22;41509;53.108;6.100;2022-10-16T03:33:58;12.70;99.90
55642;DHT22;41509;53.108;6.100;2022-10-16T03:36:23;12.70;99.90
55642;DHT22;41509;53.108;6.100;2022-10-16T03:38:49;12.70;99.90
55642;DHT22;41509;53.108;6.100;2022-10-16T03:41:15;12.70;99.90
55642;DHT22;41509;53.108;6.100;2022-10-16T03:43:41;12.70;99.90
55642;DHT22;41509;53.108;6.100;2022-10-16T03:46:06;12.60;99.90
55642;DHT22;41509;53.108;6.100;2022-10-16T03:48:32;12.60;99.90
55642;DHT22;41509;53.108;6.100;2022-10-16T03:50:58;12.60;99.90
55642;DHT22;41509;53.108;6.100;2022-10-16T03:53:23;12.60;99.90
55642;DHT22;41509;53.108;6.100;2022-10-16T03:55:49;12.60;99.90
55642;DHT22;41509;53.108;6.100;2022-10-16T03:58:15;12.60;99.90
55642;DHT22;41509;53.108;6.100;2022-10-16T04:00:42;12.60;99.90
55642;DHT22;41509;53.108;6.100;2022-10-16T04:03:08;12.60;99.90
55642;DHT22;41509;53.108;6.100;2022-10-16T04:05:34;12.60;99.90
55642;DHT22;41509;53.108;6.100;2022-10-16T04:07:59;12.60;99.90
55642;DHT22;41509;53.108;6.100;2022-10-16T04:10:25;12.60;99.90
55642;DHT22;41509;53.108;6.100;2022-10-16T04:12:51;12.60;99.90
55642;DHT22;41509;53.108;6.100;2022-10-16T04:15:16;12.60;99.90
55642;DHT22;41509;53.108;6.100;2022-10-16T04:17:42;12.70;99.90
55642;DHT22;41509;53.108;6.100;2022-10-16T04:20:08;12.60;99.90
55642;DHT22;41509;53.108;6.100;2022-10-16T04:22:33;12.60;99.90
55642;DHT22;41509;53.108;6.100;2022-10-16T04:24:59;12.60;99.90
55642;DHT22;41509;53.108;6.100;2022-10-16T04:27:25;12.70;99.90
55642;DHT22;41509;53.108;6.100;2022-10-16T04:29:50;12.70;99.90
55642;DHT22;41509;53.108;6.100;2022-10-16T04:32:16;12.70;99.90
55642;DHT22;41509;53.108;6.100;2022-10-16T04:34:42;12.70;99.90
55642;DHT22;41509;53.108;6.100;2022-10-16T04:37:07;12.70;99.90
55642;DHT22;41509;53.108;6.100;2022-10-16T04:39:33;12.70;99.90
55642;DHT22;41509;53.108;6.100;2022-10-16T04:41:58;12.70;99.90
55642;DHT22;41509;53.108;6.100;2022-10-16T04:44:24;12.70;99.90
55642;DHT22;41509;53.108;6.100;2022-10-16T04:46:51;12.80;99.90
55642;DHT22;41509;53.108;6.100;2022-10-16T04:49:16;12.80;99.90
55642;DHT22;41509;53.108;6.100;2022-10-16T04:51:42;12.70;99.90
55642;DHT22;41509;53.108;6.100;2022-10-16T04:54:09;12.80;99.90
55642;DHT22;41509;53.108;6.100;2022-10-16T04:56:34;12.80;99.90
55642;DHT22;41509;53.108;6.100;2022-10-16T04:59:08;12.80;99.90
55642;DHT22;41509;53.108;6.100;2022-10-16T05:01:34;12.80;99.90
55642;DHT22;41509;53.108;6.100;2022-10-16T05:03:59;12.80;99.90
55642;DHT22;41509;53.108;6.100;2022-10-16T05:06:25;12.80;99.90
55642;DHT22;41509;53.108;6.100;2022-10-16T05:08:50;12.80;99.90
55642;DHT22;41509;53.108;6.100;2022-10-16T05:11:16;12.90;99.90
55642;DHT22;41509;53.108;6.100;2022-10-16T05:13:42;12.80;99.90
55642;DHT22;41509;53.108;6.100;2022-10-16T05:16:07;12.80;99.90
55642;DHT22;41509;53.108;6.100;2022-10-16T05:18:33;12.90;99.90
55642;DHT22;41509;53.108;6.100;2022-10-16T05:20:58;12.80;99.90
55642;DHT22;41509;53.108;6.100;2022-10-16T05:23:24;12.90;99.90
55642;DHT22;41509;53.108;6.100;2022-10-16T05:25:55;12.90;99.90
55642;DHT22;41509;53.108;6.100;2022-10-16T05:28:27;12.90;99.90
55642;DHT22;41509;53.108;6.100;2022-10-16T05:30:53;12.90;99.90
55642;DHT22;41509;53.108;6.100;2022-10-16T05:33:20;12.90;99.90
55642;DHT22;41509;53.108;6.100;2022-10-16T05:35:46;12.90;99.90
55642;DHT22;41509;53.108;6.100;2022-10-16T05:38:12;12.90;99.90
55642;DHT22;41509;53.108;6.100;2022-10-16T05:40:38;12.90;99.90
55642;DHT22;41509;53.108;6.100;2022-10-16T05:43:03;12.90;99.90
55642;DHT22;41509;53.108;6.100;2022-10-16T05:45:29;12.90;99.90
55642;DHT22;41509;53.108;6.100;2022-10-16T05:47:55;12.90;99.90
55642;DHT22;41509;53.108;6.100;2022-10-16T05:50:21;12.90;99.90
55642;DHT22;41509;53.108;6.100;2022-10-16T05:52:46;12.90;99.90
55642;DHT22;41509;53.108;6.100;2022-10-16T05:55:12;12.90;99.90
55642;DHT22;41509;53.108;6.100;2022-10-16T05:57:37;12.90;99.90
55642;DHT22;41509;53.108;6.100;2022-10-16T06:00:04;12.90;99.90
55642;DHT22;41509;53.108;6.100;2022-10-16T06:02:30;12.90;99.90
55642;DHT22;41509;53.108;6.100;2022-10-16T06:04:55;12.90;99.90
55642;DHT22;41509;53.108;6.100;2022-10-16T06:07:22;12.80;99.90
55642;DHT22;41509;53.108;6.100;2022-10-16T06:09:48;12.90;99.90
55642;DHT22;41509;53.108;6.100;2022-10-16T06:12:14;12.90;99.90
55642;DHT22;41509;53.108;6.100;2022-10-16T06:14:39;12.90;99.90
55642;DHT22;41509;53.108;6.100;2022-10-16T06:17:05;12.90;99.90
55642;DHT22;41509;53.108;6.100;2022-10-16T06:19:31;12.90;99.90
55642;DHT22;41509;53.108;6.100;2022-10-16T06:21:57;12.90;99.90
55642;DHT22;41509;53.108;6.100;2022-10-16T06:24:24;12.90;99.90
55642;DHT22;41509;53.108;6.100;2022-10-16T06:26:49;12.90;99.90
55642;DHT22;41509;53.108;6.100;2022-10-16T06:29:15;12.90;99.90
55642;DHT22;41509;53.108;6.100;2022-10-16T06:31:41;12.90;99.90
55642;DHT22;41509;53.108;6.100;2022-10-16T06:34:09;12.90;99.90
55642;DHT22;41509;53.108;6.100;2022-10-16T06:36:36;13.00;99.90
55642;DHT22;41509;53.108;6.100;2022-10-16T06:39:02;13.00;99.90
55642;DHT22;41509;53.108;6.100;2022-10-16T06:41:28;13.00;99.90
55642;DHT22;41509;53.108;6.100;2022-10-16T06:43:54;13.00;99.90
55642;DHT22;41509;53.108;6.100;2022-10-16T06:46:22;13.00;99.90
55642;DHT22;41509;53.108;6.100;2022-10-16T06:48:48;13.10;99.90
55642;DHT22;41509;53.108;6.100;2022-10-16T06:51:17;13.00;99.90
55642;DHT22;41509;53.108;6.100;2022-10-16T06:53:51;13.00;99.90
55642;DHT22;41509;53.108;6.100;2022-10-16T06:56:19;13.10;99.90
55642;DHT22;41509;53.108;6.100;2022-10-16T06:58:45;13.10;99.90
55642;DHT22;41509;53.108;6.100;2022-10-16T07:01:12;13.10;99.90
55642;DHT22;41509;53.108;6.100;2022-10-16T07:03:40;13.10;99.90
55642;DHT22;41509;53.108;6.100;2022-10-16T07:06:07;13.10;99.90
55642;DHT22;41509;53.108;6.100;2022-10-16T07:08:35;13.10;99.90
55642;DHT22;41509;53.108;6.100;2022-10-16T07:11:03;13.00;99.90
55642;DHT22;41509;53.108;6.100;2022-10-16T07:13:28;13.00;99.90
55642;DHT22;41509;53.108;6.100;2022-10-16T07:15:54;13.00;99.90
55642;DHT22;41509;53.108;6.100;2022-10-16T07:18:20;13.10;99.90
55642;DHT22;41509;53.108;6.100;2022-10-16T07:20:47;13.00;99.90
55642;DHT22;41509;53.108;6.100;2022-10-16T07:23:12;13.10;99.90
55642;DHT22;41509;53.108;6.100;2022-10-16T07:25:38;13.00;99.90
55642;DHT22;41509;53.108;6.100;2022-10-16T07:28:04;13.00;99.90
55642;DHT22;41509;53.108;6.100;2022-10-16T07:30:29;13.00;99.90
55642;DHT22;41509;53.108;6.100;2022-10-16T07:32:55;13.00;99.90
55642;DHT22;41509;53.108;6.100;2022-10-16T07:35:20;13.00;99.90
55642;DHT22;41509;53.108;6.100;2022-10-16T07:37:46;13.00;99.90
55642;DHT22;41509;53.108;6.100;2022-10-16T07:40:12;13.00;99.90
55642;DHT22;41509;53.108;6.100;2022-10-16T07:42:38;12.90;99.90
55642;DHT22;41509;53.108;6.100;2022-10-16T07:45:04;13.00;99.90
55642;DHT22;41509;53.108;6.100;2022-10-16T07:47:30;12.90;99.90
55642;DHT22;41509;53.108;6.100;2022-10-16T07:49:56;13.00;99.90
55642;DHT22;41509;53.108;6.100;2022-10-16T07:52:21;13.00;99.90
55642;DHT22;41509;53.108;6.100;2022-10-16T07:54:47;13.00;99.90
55642;DHT22;41509;53.108;6.100;2022-10-16T07:57:12;13.00;99.90
55642;DHT22;41509;53.108;6.100;2022-10-16T07:59:45;13.10;99.90
55642;DHT22;41509;53.108;6.100;2022-10-16T08:02:11;13.10;99.90
55642;DHT22;41509;53.108;6.100;2022-10-16T08:04:38;13.10;99.90
55642;DHT22;41509;53.108;6.100;2022-10-16T08:07:04;13.20;99.90
55642;DHT22;41509;53.108;6.100;2022-10-16T08:09:36;13.20;99.90
55642;DHT22;41509;53.108;6.100;2022-10-16T08:12:07;13.20;99.90
55642;DHT22;41509;53.108;6.100;2022-10-16T08:14:35;13.30;99.90
55642;DHT22;41509;53.108;6.100;2022-10-16T08:17:01;13.30;99.90
55642;DHT22;41509;53.108;6.100;2022-10-16T08:19:27;13.40;99.90
55642;DHT22;41509;53.108;6.100;2022-10-16T08:21:53;13.50;99.90
55642;DHT22;41509;53.108;6.100;2022-10-16T08:24:19;13.60;99.90
55642;DHT22;41509;53.108;6.100;2022-10-16T08:26:44;13.60;99.90
55642;DHT22;41509;53.108;6.100;2022-10-16T08:29:10;13.70;99.90
55642;DHT22;41509;53.108;6.100;2022-10-16T08:31:38;13.80;99.90
55642;DHT22;41509;53.108;6.100;2022-10-16T08:34:03;13.80;99.90
55642;DHT22;41509;53.108;6.100;2022-10-16T08:36:29;13.80;99.90
55642;DHT22;41509;53.108;6.100;2022-10-16T08:38:55;13.90;99.90
55642;DHT22;41509;53.108;6.100;2022-10-16T08:47:56;14.20;99.90
55642;DHT22;41509;53.108;6.100;2022-10-16T08:50:27;14.30;99.90
55642;DHT22;41509;53.108;6.100;2022-10-16T08:52:53;14.30;99.90
55642;DHT22;41509;53.108;6.100;2022-10-16T08:55:43;14.30;99.90
55642;DHT22;41509;53.108;6.100;2022-10-16T08:58:13;14.40;99.90
55642;DHT22;41509;53.108;6.100;2022-10-16T09:00:40;14.30;99.90
55642;DHT22;41509;53.108;6.100;2022-10-16T09:03:16;14.40;99.90
55642;DHT22;41509;53.108;6.100;2022-10-16T09:20:23;14.90;99.90
55642;DHT22;41509;53.108;6.100;2022-10-16T09:23:15;14.90;99.90
55642;DHT22;41509;53.108;6.100;2022-10-16T09:25:42;14.90;99.90
55642;DHT22;41509;53.108;6.100;2022-10-16T09:28:09;14.90;99.90
55642;DHT22;41509;53.108;6.100;2022-10-16T09:30:35;15.00;99.90
55642;DHT22;41509;53.108;6.100;2022-10-16T09:33:01;15.00;99.90
55642;DHT22;41509;53.108;6.100;2022-10-16T09:35:37;15.00;99.90
55642;DHT22;41509;53.108;6.100;2022-10-16T09:38:04;15.00;99.90
55642;DHT22;41509;53.108;6.100;2022-10-16T09:40:32;15.00;99.90
55642;DHT22;41509;53.108;6.100;2022-10-16T09:45:43;15.20;99.90
55642;DHT22;41509;53.108;6.100;2022-10-16T09:48:19;15.20;99.90
55642;DHT22;41509;53.108;6.100;2022-10-16T09:50:58;15.30;99.90
55642;DHT22;41509;53.108;6.100;2022-10-16T09:53:26;15.40;99.90
55642;DHT22;41509;53.108;6.100;2022-10-16T09:56:02;15.50;99.90
55642;DHT22;41509;53.108;6.100;2022-10-16T09:58:30;15.50;99.90
55642;DHT22;41509;53.108;6.100;2022-10-16T10:00:58;15.60;99.90
55642;DHT22;41509;53.108;6.100;2022-10-16T10:05:59;15.70;99.90
55642;DHT22;41509;53.108;6.100;2022-10-16T10:08:25;15.80;99.90
55642;DHT22;41509;53.108;6.100;2022-10-16T10:10:51;15.90;99.90
55642;DHT22;41509;53.108;6.100;2022-10-16T10:13:23;16.00;99.90
55642;DHT22;41509;53.108;6.100;2022-10-16T10:15:50;16.00;99.90
55642;DHT22;41509;53.108;6.100;2022-10-16T10:18:18;16.10;99.90
55642;DHT22;41509;53.108;6.100;2022-10-16T10:21:00;16.20;99.90
55642;DHT22;41509;53.108;6.100;2022-10-16T10:23:27;16.20;99.90
55642;DHT22;41509;53.108;6.100;2022-10-16T10:31:29;16.30;99.90
55642;DHT22;41509;53.108;6.100;2022-10-16T10:37:22;16.40;99.90
55642;DHT22;41509;53.108;6.100;2022-10-16T10:40:00;16.40;99.90
55642;DHT22;41509;53.108;6.100;2022-10-16T10:42:59;16.50;99.90
55642;DHT22;41509;53.108;6.100;2022-10-16T10:45:46;16.70;99.90
55642;DHT22;41509;53.108;6.100;2022-10-16T10:48:34;16.60;99.90
55642;DHT22;41509;53.108;6.100;2022-10-16T10:51:12;16.80;99.90
55642;DHT22;41509;53.108;6.100;2022-10-16T10:53:54;16.80;99.90
55642;DHT22;41509;53.108;6.100;2022-10-16T10:56:42;16.80;99.90
55642;DHT22;41509;53.108;6.100;2022-10-16T11:10:45;16.70;99.90
55642;DHT22;41509;53.108;6.100;2022-10-16T11:13:32;16.60;99.90
55642;DHT22;41509;53.108;6.100;2022-10-16T11:16:04;16.50;99.90
55642;DHT22;41509;53.108;6.100;2022-10-16T11:18:55;16.40;99.90
55642;DHT22;41509;53.108;6.100;2022-10-16T11:21:22;16.30;99.90
55642;DHT22;41509;53.108;6.100;2022-10-16T11:23:53;16.30;99.90
55642;DHT22;41509;53.108;6.100;2022-10-16T11:26:28;16.40;99.90
55642;DHT22;41509;53.108;6.100;2022-10-16T11:28:56;16.60;99.90
55642;DHT22;41509;53.108;6.100;2022-10-16T11:31:45;16.60;99.90
55642;DHT22;41509;53.108;6.100;2022-10-16T11:36:59;16.70;99.90
55642;DHT22;41509;53.108;6.100;2022-10-16T11:39:29;16.80;99.90
55642;DHT22;41509;53.108;6.100;2022-10-16T11:42:18;16.90;99.90
55642;DHT22;41509;53.108;6.100;2022-10-16T11:47:40;17.00;99.90
55642;DHT22;41509;53.108;6.100;2022-10-16T11:50:26;17.00;99.90
55642;DHT22;41509;53.108;6.100;2022-10-16T11:55:43;16.90;99.90
55642;DHT22;41509;53.108;6.100;2022-10-16T11:58:43;16.80;99.90
55642;DHT22;41509;53.108;6.100;2022-10-16T12:01:18;16.60;99.90
55642;DHT22;41509;53.108;6.100;2022-10-16T12:03:47;16.50;99.90
55642;DHT22;41509;53.108;6.100;2022-10-16T12:09:03;16.50;99.90
55642;DHT22;41509;53.108;6.100;2022-10-16T12:14:18;16.40;99.90
55642;DHT22;41509;53.108;6.100;2022-10-16T12:16:54;16.60;99.90
55642;DHT22;41509;53.108;6.100;2022-10-16T12:19:22;16.70;99.90
55642;DHT22;41509;53.108;6.100;2022-10-16T12:21:49;16.80;99.90
55642;DHT22;41509;53.108;6.100;2022-10-16T12:26:58;17.00;99.90
55642;DHT22;41509;53.108;6.100;2022-10-16T12:32:00;17.00;99.90
55642;DHT22;41509;53.108;6.100;2022-10-16T12:34:32;17.10;99.90
55642;DHT22;41509;53.108;6.100;2022-10-16T12:37:52;17.10;99.90
55642;DHT22;41509;53.108;6.100;2022-10-16T12:40:24;17.10;99.90
55642;DHT22;41509;53.108;6.100;2022-10-16T12:42:51;17.00;99.90
55642;DHT22;41509;53.108;6.100;2022-10-16T12:45:29;17.00;99.90
55642;DHT22;41509;53.108;6.100;2022-10-16T12:47:59;17.00;99.90
55642;DHT22;41509;53.108;6.100;2022-10-16T12:52:53;17.10;99.90
55642;DHT22;41509;53.108;6.100;2022-10-16T12:55:20;17.00;99.90
55642;DHT22;41509;53.108;6.100;2022-10-16T12:57:56;17.00;99.90
55642;DHT22;41509;53.108;6.100;2022-10-16T13:03:54;17.00;99.90
55642;DHT22;41509;53.108;6.100;2022-10-16T13:06:33;17.00;99.90
55642;DHT22;41509;53.108;6.100;2022-10-16T13:23:57;17.20;99.90
55642;DHT22;41509;53.108;6.100;2022-10-16T13:26:40;17.20;99.90
55642;DHT22;41509;53.108;6.100;2022-10-16T13:29:09;17.20;99.90
55642;DHT22;41509;53.108;6.100;2022-10-16T13:31:37;17.20;99.90
55642;DHT22;41509;53.108;6.100;2022-10-16T13:34:05;17.00;99.90
55642;DHT22;41509;53.108;6.100;2022-10-16T13:36:44;17.00;99.90
55642;DHT22;41509;53.108;6.100;2022-10-16T13:39:15;17.00;99.90
55642;DHT22;41509;53.108;6.100;2022-10-16T13:41:43;17.10;99.90
55642;DHT22;41509;53.108;6.100;2022-10-16T13:44:17;17.10;99.90
55642;DHT22;41509;53.108;6.100;2022-10-16T13:46:44;17.20;99.90
55642;DHT22;41509;53.108;6.100;2022-10-16T13:49:16;17.30;99.90
55642;DHT22;41509;53.108;6.100;2022-10-16T13:51:58;17.50;99.90
55642;DHT22;41509;53.108;6.100;2022-10-16T13:54:27;17.60;99.90
55642;DHT22;41509;53.108;6.100;2022-10-16T13:56:54;17.80;99.90
55642;DHT22;41509;53.108;6.100;2022-10-16T13:59:24;17.80;99.90
55642;DHT22;41509;53.108;6.100;2022-10-16T14:01:52;17.90;99.90
55642;DHT22;41509;53.108;6.100;2022-10-16T14:04:19;17.90;99.90
55642;DHT22;41509;53.108;6.100;2022-10-16T14:06:48;18.00;99.90
55642;DHT22;41509;53.108;6.100;2022-10-16T14:11:55;18.00;99.90
55642;DHT22;41509;53.108;6.100;2022-10-16T14:14:22;18.00;99.90
55642;DHT22;41509;53.108;6.100;2022-10-16T14:16:48;17.90;99.90
55642;DHT22;41509;53.108;6.100;2022-10-16T14:19:23;17.90;99.90
55642;DHT22;41509;53.108;6.100;2022-10-16T14:21:51;17.80;99.90
55642;DHT22;41509;53.108;6.100;2022-10-16T14:24:33;17.70;99.90
55642;DHT22;41509;53.108;6.100;2022-10-16T14:27:00;17.60;99.90
55642;DHT22;41509;53.108;6.100;2022-10-16T14:29:29;17.50;99.90
55642;DHT22;41509;53.108;6.100;2022-10-16T14:32:05;17.40;99.90
55642;DHT22;41509;53.108;6.100;2022-10-16T14:34:32;17.30;99.90
55642;DHT22;41509;53.108;6.100;2022-10-16T14:37:13;17.20;99.90
55642;DHT22;41509;53.108;6.100;2022-10-16T14:39:40;17.10;99.90
55642;DHT22;41509;53.108;6.100;2022-10-16T14:42:14;17.00;99.90
55642;DHT22;41509;53.108;6.100;2022-10-16T14:44:42;17.00;99.90
55642;DHT22;41509;53.108;6.100;2022-10-16T14:47:13;16.80;99.90
55642;DHT22;41509;53.108;6.100;2022-10-16T14:49:41;16.80;99.90
55642;DHT22;41509;53.108;6.100;2022-10-16T14:52:11;16.60;99.90
55642;DHT22;41509;53.108;6.100;2022-10-16T14:54:38;16.70;99.90
55642;DHT22;41509;53.108;6.100;2022-10-16T14:57:04;16.70;99.90
55642;DHT22;41509;53.108;6.100;2022-10-16T14:59:41;16.60;99.90
55642;DHT22;41509;53.108;6.100;2022-10-16T15:02:29;16.60;99.90
55642;DHT22;41509;53.108;6.100;2022-10-16T15:04:56;16.50;99.90
55642;DHT22;41509;53.108;6.100;2022-10-16T15:07:22;16.50;99.90
55642;DHT22;41509;53.108;6.100;2022-10-16T15:09:47;16.40;99.90
55642;DHT22;41509;53.108;6.100;2022-10-16T15:12:13;16.40;99.90
55642;DHT22;41509;53.108;6.100;2022-10-16T15:14:38;16.40;99.90
55642;DHT22;41509;53.108;6.100;2022-10-16T15:17:04;16.40;99.90
55642;DHT22;41509;53.108;6.100;2022-10-16T15:19:30;16.30;99.90
55642;DHT22;41509;53.108;6.100;2022-10-16T15:21:56;16.30;99.90
55642;DHT22;41509;53.108;6.100;2022-10-16T15:24:22;16.30;99.90
55642;DHT22;41509;53.108;6.100;2022-10-16T15:26:48;16.30;99.90
55642;DHT22;41509;53.108;6.100;2022-10-16T15:29:14;16.20;99.90
55642;DHT22;41509;53.108;6.100;2022-10-16T15:31:40;16.20;99.90
55642;DHT22;41509;53.108;6.100;2022-10-16T15:34:10;16.20;99.90
55642;DHT22;41509;53.108;6.100;2022-10-16T15:36:37;16.10;99.90
55642;DHT22;41509;53.108;6.100;2022-10-16T15:39:04;16.10;99.90
55642;DHT22;41509;53.108;6.100;2022-10-16T15:41:32;16.10;99.90
55642;DHT22;41509;53.108;6.100;2022-10-16T15:43:58;16.00;99.90
55642;DHT22;41509;53.108;6.100;2022-10-16T15:46:24;16.00;99.90
55642;DHT22;41509;53.108;6.100;2022-10-16T15:48:50;15.90;99.90
55642;DHT22;41509;53.108;6.100;2022-10-16T15:51:17;15.90;99.90
55642;DHT22;41509;53.108;6.100;2022-10-16T15:53:44;15.80;99.90
55642;DHT22;41509;53.108;6.100;2022-10-16T15:56:13;15.80;99.90
55642;DHT22;41509;53.108;6.100;2022-10-16T15:58:39;15.70;99.90
55642;DHT22;41509;53.108;6.100;2022-10-16T16:01:08;15.70;99.90
55642;DHT22;41509;53.108;6.100;2022-10-16T16:03:38;15.70;99.90
55642;DHT22;41509;53.108;6.100;2022-10-16T16:06:08;15.60;99.90
55642;DHT22;41509;53.108;6.100;2022-10-16T16:08:35;15.60;99.90
55642;DHT22;41509;53.108;6.100;2022-10-16T16:11:05;15.50;99.90
55642;DHT22;41509;53.108;6.100;2022-10-16T16:13:31;15.40;99.90
55642;DHT22;41509;53.108;6.100;2022-10-16T16:15:57;15.40;99.90
55642;DHT22;41509;53.108;6.100;2022-10-16T16:18:23;15.30;99.90
55642;DHT22;41509;53.108;6.100;2022-10-16T16:20:50;15.30;99.90
55642;DHT22;41509;53.108;6.100;2022-10-16T16:23:16;15.20;99.90
55642;DHT22;41509;53.108;6.100;2022-10-16T16:25:42;15.20;99.90
55642;DHT22;41509;53.108;6.100;2022-10-16T16:28:09;15.10;99.90
55642;DHT22;41509;53.108;6.100;2022-10-16T16:30:36;15.10;99.90
55642;DHT22;41509;53.108;6.100;2022-10-16T16:33:02;15.00;99.90
55642;DHT22;41509;53.108;6.100;2022-10-16T16:35:28;14.90;99.90
55642;DHT22;41509;53.108;6.100;2022-10-16T16:37:53;14.90;99.90
55642;DHT22;41509;53.108;6.100;2022-10-16T16:40:19;14.80;99.90
55642;DHT22;41509;53.108;6.100;2022-10-16T16:42:48;14.80;99.90
55642;DHT22;41509;53.108;6.100;2022-10-16T16:45:13;14.70;99.90
55642;DHT22;41509;53.108;6.100;2022-10-16T16:47:39;14.60;99.90
55642;DHT22;41509;53.108;6.100;2022-10-16T16:50:05;14.60;99.90
55642;DHT22;41509;53.108;6.100;2022-10-16T16:52:32;14.50;99.90
55642;DHT22;41509;53.108;6.100;2022-10-16T16:54:58;14.40;99.90
55642;DHT22;41509;53.108;6.100;2022-10-16T16:57:24;14.40;99.90
55642;DHT22;41509;53.108;6.100;2022-10-16T16:59:50;14.30;99.90
55642;DHT22;41509;53.108;6.100;2022-10-16T17:02:17;14.30;99.90
55642;DHT22;41509;53.108;6.100;2022-10-16T17:04:42;14.20;99.90
55642;DHT22;41509;53.108;6.100;2022-10-16T17:07:08;14.20;99.90
55642;DHT22;41509;53.108;6.100;2022-10-16T17:09:34;14.10;99.90
55642;DHT22;41509;53.108;6.100;2022-10-16T17:12:00;14.00;99.90
55642;DHT22;41509;53.108;6.100;2022-10-16T17:14:25;14.00;99.90
55642;DHT22;41509;53.108;6.100;2022-10-16T17:16:51;13.90;99.90
55642;DHT22;41509;53.108;6.100;2022-10-16T17:19:18;13.90;99.90
55642;DHT22;41509;53.108;6.100;2022-10-16T17:21:44;13.80;99.90
55642;DHT22;41509;53.108;6.100;2022-10-16T17:24:10;13.80;99.90